createdAt,value
2023-05-10T00:00:02.324Z,55.00
2023-05-10T00:00:16.402Z,54.71
2023-05-10T00:00:49.982Z,54.92
2023-05-10T00:01:02.510Z,54.70
2023-05-10T00:01:14.994Z,54.77
2023-05-10T00:01:27.494Z,54.73
2023-05-10T00:01:40.259Z,54.73
2023-05-10T00:01:53.112Z,54.83
2023-05-10T00:02:05.720Z,54.91
2023-05-10T00:02:19.612Z,54.87
2023-05-10T00:02:32.388Z,54.62
2023-05-10T00:02:45.259Z,54.80
2023-05-10T00:02:57.954Z,54.66
2023-05-10T00:03:10.562Z,54.70
2023-05-10T00:03:23.299Z,54.69
2023-05-10T00:03:36.994Z,55.13
2023-05-10T00:03:49.753Z,55.25
2023-05-10T00:04:02.379Z,55.44
2023-05-10T00:04:15.030Z,55.27
2023-05-10T00:04:28.451Z,55.38
2023-05-10T00:04:40.941Z,55.60
2023-05-10T00:04:53.529Z,55.67
2023-05-10T00:05:07.976Z,55.85
2023-05-10T00:05:20.526Z,56.00
2023-05-10T00:05:33.176Z,55.95
2023-05-10T00:05:45.705Z,55.79
2023-05-10T00:05:59.522Z,55.98
2023-05-10T00:06:12.027Z,56.08
2023-05-10T00:06:25.537Z,56.31
2023-05-10T00:06:38.035Z,56.05
2023-05-10T00:06:50.545Z,56.57
2023-05-10T00:07:03.276Z,56.47
2023-05-10T00:07:18.089Z,56.54
2023-05-10T00:07:30.710Z,56.17
2023-05-10T00:07:45.743Z,55.85
2023-05-10T00:07:59.502Z,55.91
2023-05-10T00:08:13.385Z,55.63
2023-05-10T00:08:25.864Z,55.65
2023-05-10T00:08:38.412Z,55.64
2023-05-10T00:08:50.918Z,55.44
2023-05-10T00:09:04.465Z,55.30
2023-05-10T00:09:17.926Z,55.35
2023-05-10T00:09:30.722Z,55.40
2023-05-10T00:09:43.248Z,55.28
2023-05-10T00:09:55.768Z,55.38
2023-05-10T00:10:08.958Z,55.20
2023-05-10T00:10:21.487Z,55.34
2023-05-10T00:10:33.980Z,55.29
2023-05-10T00:10:47.526Z,55.29
2023-05-10T00:11:00.032Z,55.28
2023-05-10T00:11:12.531Z,55.26
2023-05-10T00:11:25.146Z,55.46
2023-05-10T00:11:37.694Z,55.67
2023-05-10T00:11:50.444Z,55.55
2023-05-10T00:12:02.946Z,55.63
2023-05-10T00:12:16.471Z,55.55
2023-05-10T00:12:29.039Z,55.38
2023-05-10T00:12:41.553Z,55.56
2023-05-10T00:12:54.103Z,55.53
2023-05-10T00:13:06.752Z,55.65
2023-05-10T00:13:19.777Z,55.68
2023-05-10T00:13:33.380Z,55.63
2023-05-10T00:13:46.049Z,55.80
2023-05-10T00:13:58.686Z,55.77
2023-05-10T00:14:11.203Z,55.70
2023-05-10T00:14:23.684Z,55.83
2023-05-10T00:14:36.398Z,55.58
2023-05-10T00:14:49.010Z,55.56
2023-05-10T00:15:02.633Z,55.63
2023-05-10T00:15:15.154Z,55.59
2023-05-10T00:15:27.747Z,55.67
2023-05-10T00:15:40.368Z,55.80
2023-05-10T00:15:52.859Z,55.91
2023-05-10T00:16:07.191Z,55.95
2023-05-10T00:16:19.819Z,55.91
2023-05-10T00:16:33.425Z,55.96
2023-05-10T00:16:46.317Z,56.42
2023-05-10T00:16:59.229Z,56.19
2023-05-10T00:17:11.795Z,56.48
2023-05-10T00:17:24.350Z,56.72
2023-05-10T00:17:37.075Z,56.47
2023-05-10T00:17:49.704Z,56.77
2023-05-10T00:18:02.302Z,56.82
2023-05-10T00:18:15.821Z,56.85
2023-05-10T00:18:28.363Z,57.01
2023-05-10T00:18:41.038Z,56.84
2023-05-10T00:18:53.518Z,57.23
2023-05-10T00:19:06.058Z,57.45
2023-05-10T00:19:18.620Z,57.35
2023-05-10T00:19:31.090Z,57.43
2023-05-10T00:19:44.607Z,57.54
2023-05-10T00:19:57.173Z,57.78
2023-05-10T00:20:11.349Z,57.63
2023-05-10T00:20:24.009Z,57.57
2023-05-10T00:20:36.600Z,57.56
2023-05-10T00:20:49.815Z,57.66
2023-05-10T00:21:03.467Z,57.58
2023-05-10T00:21:16.152Z,57.66
2023-05-10T00:21:29.401Z,57.60
2023-05-10T00:21:42.339Z,57.58
2023-05-10T00:21:55.400Z,57.79
2023-05-10T00:22:08.001Z,57.98
2023-05-10T00:22:20.527Z,57.75
2023-05-10T00:22:33.336Z,57.81
2023-05-10T00:22:46.826Z,57.64
2023-05-10T00:22:59.417Z,57.70
2023-05-10T00:23:13.489Z,57.76
2023-05-10T00:23:26.050Z,57.82
2023-05-10T00:23:38.637Z,58.06
2023-05-10T00:23:51.274Z,58.25
2023-05-10T00:24:04.240Z,58.18
2023-05-10T00:24:17.771Z,58.10
2023-05-10T00:24:30.675Z,57.98
2023-05-10T00:24:43.261Z,57.58
2023-05-10T00:24:55.829Z,57.83
2023-05-10T00:25:10.170Z,57.75
2023-05-10T00:25:22.759Z,57.70
2023-05-10T00:25:35.327Z,57.71
2023-05-10T00:25:47.870Z,58.16
2023-05-10T00:26:01.391Z,58.19
2023-05-10T00:26:14.022Z,58.34
2023-05-10T00:26:26.688Z,58.39
2023-05-10T00:26:39.279Z,58.52
2023-05-10T00:26:51.922Z,58.69
2023-05-10T00:27:05.079Z,59.00
2023-05-10T00:27:17.564Z,59.14
2023-05-10T00:27:31.078Z,59.11
2023-05-10T00:27:43.809Z,58.78
2023-05-10T00:27:56.358Z,59.59
2023-05-10T00:28:09.169Z,59.62
2023-05-10T00:28:21.654Z,59.81
2023-05-10T00:28:34.179Z,59.67
2023-05-10T00:28:47.762Z,59.79
2023-05-10T00:29:00.830Z,59.74
2023-05-10T00:29:13.362Z,59.85
2023-05-10T00:29:25.857Z,60.06
2023-05-10T00:29:38.425Z,60.23
2023-05-10T00:29:51.056Z,60.34
2023-05-10T00:30:03.998Z,60.15
2023-05-10T00:30:17.724Z,60.41
2023-05-10T00:30:30.476Z,60.42
2023-05-10T00:30:42.966Z,60.43
2023-05-10T00:30:55.453Z,60.67
2023-05-10T00:31:08.842Z,60.77
2023-05-10T00:31:21.431Z,60.64
2023-05-10T00:31:34.101Z,60.45
2023-05-10T00:31:47.920Z,60.69
2023-05-10T00:32:00.489Z,60.55
2023-05-10T00:32:14.992Z,60.56
2023-05-10T00:32:27.569Z,60.84
2023-05-10T00:32:40.383Z,60.98
2023-05-10T00:32:52.975Z,60.97
2023-05-10T00:33:06.560Z,61.21
2023-05-10T00:33:19.346Z,61.22
2023-05-10T00:33:31.935Z,61.30
2023-05-10T00:33:44.482Z,61.56
2023-05-10T00:33:56.986Z,61.60
2023-05-10T00:34:09.480Z,61.85
2023-05-10T00:34:23.037Z,62.00
2023-05-10T00:34:35.523Z,61.91
2023-05-10T00:34:48.058Z,61.84
2023-05-10T00:35:00.624Z,61.84
2023-05-10T00:35:13.202Z,61.57
2023-05-10T00:35:25.825Z,61.64
2023-05-10T00:35:38.996Z,61.77
2023-05-10T00:35:51.659Z,61.76
2023-05-10T00:36:04.776Z,62.05
2023-05-10T00:36:18.242Z,61.73
2023-05-10T00:36:30.754Z,61.81
2023-05-10T00:36:43.300Z,62.04
2023-05-10T00:36:55.768Z,61.90
2023-05-10T00:37:08.312Z,62.22
2023-05-10T00:37:20.816Z,62.15
2023-05-10T00:37:33.321Z,62.13
2023-05-10T00:37:46.171Z,62.39
2023-05-10T00:37:59.623Z,62.57
2023-05-10T00:38:13.674Z,62.71
2023-05-10T00:38:26.160Z,62.88
2023-05-10T00:38:39.163Z,62.90
2023-05-10T00:38:51.653Z,62.93
2023-05-10T00:39:04.593Z,63.00
2023-05-10T00:39:18.064Z,62.84
2023-05-10T00:39:30.801Z,63.01
2023-05-10T00:39:43.479Z,63.02
2023-05-10T00:39:56.007Z,62.72
2023-05-10T00:40:09.144Z,62.82
2023-05-10T00:40:21.957Z,62.74
2023-05-10T00:40:37.432Z,63.04
2023-05-10T00:40:49.947Z,62.91
2023-05-10T00:41:02.468Z,62.96
2023-05-10T00:41:14.964Z,63.01
2023-05-10T00:41:27.651Z,63.05
2023-05-10T00:41:40.145Z,62.77
2023-05-10T00:41:52.631Z,62.92
2023-05-10T00:42:05.523Z,63.09
2023-05-10T00:42:19.099Z,63.03
2023-05-10T00:42:31.718Z,62.74
2023-05-10T00:42:44.261Z,62.85
2023-05-10T00:42:56.757Z,62.91
2023-05-10T00:43:09.518Z,63.04
2023-05-10T00:43:22.033Z,62.87
2023-05-10T00:43:34.525Z,62.77
2023-05-10T00:43:48.049Z,62.85
2023-05-10T00:44:00.642Z,62.87
2023-05-10T00:44:13.214Z,62.98
2023-05-10T00:44:25.760Z,63.10
2023-05-10T00:44:38.627Z,62.89
2023-05-10T00:44:51.126Z,62.99
2023-05-10T00:45:04.031Z,63.03
2023-05-10T00:45:16.929Z,63.10
2023-05-10T00:45:30.710Z,63.15
2023-05-10T00:45:43.456Z,62.93
2023-05-10T00:45:56.228Z,62.84
2023-05-10T00:46:08.939Z,63.05
2023-05-10T00:46:22.478Z,62.96
2023-05-10T00:46:35.462Z,63.15
2023-05-10T00:46:48.890Z,63.09
2023-05-10T00:47:01.523Z,63.20
2023-05-10T00:47:15.166Z,63.09
2023-05-10T00:47:28.277Z,63.16
2023-05-10T00:47:41.078Z,62.90
2023-05-10T00:47:56.189Z,63.52
2023-05-10T00:48:09.564Z,63.43
2023-05-10T00:48:22.976Z,63.25
2023-05-10T00:48:35.764Z,63.12
2023-05-10T00:48:49.604Z,63.10
2023-05-10T00:49:02.580Z,63.48
2023-05-10T00:49:15.267Z,63.38
2023-05-10T00:49:27.979Z,63.52
2023-05-10T00:49:41.724Z,63.63
2023-05-10T00:49:54.588Z,63.92
2023-05-10T00:50:08.317Z,63.91
2023-05-10T00:50:21.796Z,64.18
2023-05-10T00:50:35.012Z,63.63
2023-05-10T00:50:47.723Z,63.55
2023-05-10T00:51:00.292Z,63.59
2023-05-10T00:51:13.351Z,63.61
2023-05-10T00:51:26.288Z,63.75
2023-05-10T00:51:38.943Z,63.49
2023-05-10T00:51:52.642Z,63.72
2023-05-10T00:52:05.499Z,63.80
2023-05-10T00:52:17.993Z,63.96
2023-05-10T00:52:31.268Z,63.91
2023-05-10T00:52:44.209Z,63.99
2023-05-10T00:52:56.853Z,63.91
2023-05-10T00:53:11.216Z,64.09
2023-05-10T00:53:25.900Z,64.23
2023-05-10T00:53:38.921Z,64.52
2023-05-10T00:53:52.402Z,64.38
2023-05-10T00:54:05.044Z,64.80
2023-05-10T00:54:17.937Z,64.65
2023-05-10T00:54:31.039Z,64.85
2023-05-10T00:54:44.746Z,64.80
2023-05-10T00:54:57.886Z,65.00
2023-05-10T00:55:11.025Z,64.93
2023-05-10T00:55:23.782Z,64.80
2023-05-10T00:55:36.567Z,65.00
2023-05-10T00:55:49.249Z,65.08
2023-05-10T00:56:04.251Z,65.06
2023-05-10T00:56:16.984Z,64.87
2023-05-10T00:56:30.856Z,64.93
2023-05-10T00:56:44.656Z,64.80
2023-05-10T00:56:58.024Z,65.01
2023-05-10T00:57:11.973Z,65.53
2023-05-10T00:57:25.192Z,65.16
2023-05-10T00:57:37.881Z,65.01
2023-05-10T00:57:50.568Z,65.07
2023-05-10T00:58:03.379Z,65.28
2023-05-10T00:58:16.151Z,65.08
2023-05-10T00:58:29.391Z,65.23
2023-05-10T00:58:42.132Z,65.35
2023-05-10T00:58:55.684Z,65.28
2023-05-10T00:59:09.266Z,65.09
2023-05-10T00:59:22.417Z,65.16
2023-05-10T00:59:35.253Z,65.43
2023-05-10T00:59:47.909Z,65.00
2023-05-10T01:00:00.723Z,65.33
2023-05-10T01:00:18.910Z,65.19
2023-05-10T01:00:32.476Z,65.51
2023-05-10T01:00:47.692Z,65.45
2023-05-10T01:01:01.585Z,65.81
2023-05-10T01:01:14.785Z,65.88
2023-05-10T01:01:27.436Z,65.81
2023-05-10T01:01:40.079Z,66.01
2023-05-10T01:01:53.475Z,65.54
2023-05-10T01:02:07.383Z,65.52
2023-05-10T01:02:20.934Z,65.33
2023-05-10T01:02:34.958Z,65.31
2023-05-10T01:02:47.988Z,64.71
2023-05-10T01:03:00.990Z,64.81
2023-05-10T01:03:14.042Z,64.74
2023-05-10T01:03:26.971Z,64.53
2023-05-10T01:03:41.030Z,64.51
2023-05-10T01:03:55.106Z,64.50
2023-05-10T01:04:07.982Z,64.34
2023-05-10T01:04:22.764Z,64.40
2023-05-10T01:04:36.532Z,64.21
2023-05-10T01:04:50.410Z,64.56
2023-05-10T01:05:04.721Z,64.41
2023-05-10T01:05:17.318Z,64.08
2023-05-10T01:05:31.134Z,64.34
2023-05-10T01:05:43.753Z,64.37
2023-05-10T01:05:56.442Z,64.51
2023-05-10T01:06:10.899Z,64.51
2023-05-10T01:06:23.396Z,64.38
2023-05-10T01:06:35.909Z,64.29
2023-05-10T01:06:48.478Z,64.53
2023-05-10T01:07:02.199Z,64.14
2023-05-10T01:07:14.722Z,64.16
2023-05-10T01:07:27.229Z,64.46
2023-05-10T01:07:39.942Z,64.45
2023-05-10T01:07:52.456Z,64.49
2023-05-10T01:08:05.737Z,64.37
2023-05-10T01:08:18.753Z,64.24
2023-05-10T01:08:34.046Z,64.07
2023-05-10T01:08:46.593Z,63.96
2023-05-10T01:08:59.185Z,64.15
2023-05-10T01:09:12.700Z,64.09
2023-05-10T01:09:27.333Z,63.96
2023-05-10T01:09:40.242Z,63.78
2023-05-10T01:09:53.988Z,63.97
2023-05-10T01:10:07.737Z,63.96
2023-05-10T01:10:20.527Z,63.78
2023-05-10T01:10:33.195Z,63.99
2023-05-10T01:10:46.467Z,63.89
2023-05-10T01:10:59.607Z,64.13
2023-05-10T01:11:12.188Z,63.96
2023-05-10T01:11:26.185Z,63.89
2023-05-10T01:11:40.857Z,63.67
2023-05-10T01:11:54.352Z,63.71
2023-05-10T01:12:08.383Z,63.53
2023-05-10T01:12:21.176Z,63.43
2023-05-10T01:12:35.060Z,63.21
2023-05-10T01:12:48.678Z,63.30
2023-05-10T01:13:03.072Z,63.45
2023-05-10T01:13:29.068Z,63.40
2023-05-10T01:13:44.241Z,63.41
2023-05-10T01:13:58.347Z,63.46
2023-05-10T01:14:11.121Z,63.26
2023-05-10T01:14:25.109Z,63.36
2023-05-10T01:14:37.924Z,63.38
2023-05-10T01:14:50.534Z,63.45
2023-05-10T01:15:03.486Z,63.49
2023-05-10T01:15:17.640Z,63.77
2023-05-10T01:15:31.909Z,63.99
2023-05-10T01:15:44.533Z,63.81
2023-05-10T01:15:57.523Z,64.00
2023-05-10T01:16:11.356Z,63.79
2023-05-10T01:16:24.680Z,63.58
2023-05-10T01:16:39.363Z,63.63
2023-05-10T01:16:54.239Z,63.54
2023-05-10T01:17:08.088Z,63.40
2023-05-10T01:17:21.952Z,63.21
2023-05-10T01:17:35.849Z,63.40
2023-05-10T01:17:50.272Z,63.20
2023-05-10T01:18:04.147Z,62.99
2023-05-10T01:18:20.395Z,63.55
2023-05-10T01:18:35.923Z,63.28
2023-05-10T01:18:49.612Z,63.19
2023-05-10T01:19:02.306Z,62.85
2023-05-10T01:19:20.839Z,62.84
2023-05-10T01:19:38.587Z,62.77
2023-05-10T01:19:51.449Z,62.60
2023-05-10T01:20:04.794Z,62.55
2023-05-10T01:20:17.867Z,62.66
2023-05-10T01:20:39.254Z,62.41
2023-05-10T01:21:00.461Z,62.53
2023-05-10T01:21:23.329Z,62.43
2023-05-10T01:21:45.098Z,62.82
2023-05-10T01:22:05.924Z,62.70
2023-05-10T01:22:41.857Z,62.66
2023-05-10T01:23:12.963Z,62.85
2023-05-10T01:23:53.124Z,62.68
2023-05-10T01:24:43.210Z,62.93
2023-05-10T01:25:34.063Z,62.63
2023-05-10T01:26:18.884Z,62.48
2023-05-10T01:26:49.304Z,62.26
2023-05-10T01:27:40.988Z,62.44
2023-05-10T01:28:16.763Z,62.71
2023-05-10T01:29:00.434Z,62.49
2023-05-10T01:29:30.351Z,62.13
2023-05-10T01:30:21.821Z,61.92
2023-05-10T01:30:58.487Z,62.24
2023-05-10T01:31:31.575Z,62.48
2023-05-10T01:32:31.508Z,62.78
2023-05-10T01:32:56.626Z,62.79
2023-05-10T01:33:12.723Z,62.64
2023-05-10T01:33:31.279Z,62.69
2023-05-10T01:33:51.053Z,62.59
2023-05-10T01:34:08.074Z,62.65
2023-05-10T01:34:25.004Z,62.81
2023-05-10T01:34:44.685Z,62.85
2023-05-10T01:35:03.686Z,62.91
2023-05-10T01:35:21.585Z,62.80
2023-05-10T01:35:41.313Z,62.45
2023-05-10T01:36:01.004Z,62.32
2023-05-10T01:36:26.846Z,62.52
2023-05-10T01:36:46.580Z,62.58
2023-05-10T01:37:03.960Z,62.66
2023-05-10T01:37:22.711Z,62.78
2023-05-10T01:37:42.170Z,63.11
2023-05-10T01:38:06.990Z,63.30
2023-05-10T01:38:30.419Z,63.33
2023-05-10T01:38:47.509Z,63.13
2023-05-10T01:39:03.436Z,63.21
2023-05-10T01:39:24.441Z,62.85
2023-05-10T01:39:45.907Z,62.82
2023-05-10T01:40:04.117Z,62.85
2023-05-10T01:40:24.333Z,62.92
2023-05-10T01:40:41.156Z,63.08
2023-05-10T01:41:04.779Z,63.25
2023-05-10T01:41:21.211Z,63.33
2023-05-10T01:41:41.729Z,63.25
2023-05-10T01:42:04.499Z,63.30
2023-05-10T01:42:21.224Z,63.22
2023-05-10T01:42:41.921Z,63.30
2023-05-10T01:43:10.087Z,63.37
2023-05-10T01:43:27.322Z,63.47
2023-05-10T01:43:47.985Z,63.44
2023-05-10T01:44:07.940Z,63.82
2023-05-10T01:44:29.877Z,63.82
2023-05-10T01:44:50.232Z,63.63
2023-05-10T01:45:13.162Z,63.66
2023-05-10T01:45:31.862Z,63.91
2023-05-10T01:45:52.146Z,63.64
2023-05-10T01:46:11.887Z,63.97
2023-05-10T01:46:29.942Z,63.60
2023-05-10T01:46:42.792Z,63.45
2023-05-10T01:47:02.530Z,63.19
2023-05-10T01:47:18.567Z,63.21
2023-05-10T01:47:39.541Z,63.18
2023-05-10T01:47:59.673Z,63.26
2023-05-10T01:48:14.029Z,63.49
2023-05-10T01:48:29.157Z,62.92
2023-05-10T01:48:50.072Z,63.06
2023-05-10T01:49:05.056Z,63.05
2023-05-10T01:49:25.325Z,63.00
2023-05-10T01:49:43.208Z,62.65
2023-05-10T01:49:56.982Z,62.95
2023-05-10T01:50:17.045Z,62.89
2023-05-10T01:50:31.695Z,63.00
2023-05-10T01:50:46.463Z,62.74
2023-05-10T01:50:59.775Z,62.93
2023-05-10T01:51:13.751Z,62.83
2023-05-10T01:51:28.668Z,63.04
2023-05-10T01:51:46.123Z,62.85
2023-05-10T01:52:05.104Z,63.26
2023-05-10T01:52:21.184Z,63.14
2023-05-10T01:52:39.586Z,63.63
2023-05-10T01:52:56.759Z,63.55
2023-05-10T01:53:12.013Z,63.51
2023-05-10T01:53:25.155Z,63.20
2023-05-10T01:53:40.081Z,63.39
2023-05-10T01:53:59.925Z,63.20
2023-05-10T01:54:15.610Z,63.26
2023-05-10T01:54:30.029Z,63.33
2023-05-10T01:54:46.616Z,63.23
2023-05-10T01:55:03.914Z,63.32
2023-05-10T01:55:19.213Z,62.86
2023-05-10T01:55:36.666Z,62.66
2023-05-10T01:55:53.640Z,62.90
2023-05-10T01:56:08.839Z,62.68
2023-05-10T01:56:25.057Z,62.63
2023-05-10T01:56:41.173Z,62.78
2023-05-10T01:57:00.432Z,62.86
2023-05-10T01:57:15.434Z,62.86
2023-05-10T01:57:33.844Z,62.58
2023-05-10T01:57:49.064Z,62.85
2023-05-10T01:58:06.251Z,62.89
2023-05-10T01:58:23.746Z,63.08
2023-05-10T01:58:41.976Z,62.78
2023-05-10T01:58:56.704Z,62.78
2023-05-10T01:59:14.172Z,63.18
2023-05-10T01:59:30.715Z,63.12
2023-05-10T01:59:46.677Z,63.30
2023-05-10T02:00:01.821Z,63.53
2023-05-10T02:00:17.513Z,63.59
2023-05-10T02:00:32.351Z,63.68
2023-05-10T02:00:47.302Z,63.69
2023-05-10T02:01:02.805Z,63.93
2023-05-10T02:01:16.418Z,63.99
2023-05-10T02:01:29.029Z,64.12
2023-05-10T02:01:44.126Z,64.12
2023-05-10T02:02:00.002Z,64.34
2023-05-10T02:02:15.839Z,63.90
2023-05-10T02:02:31.188Z,63.72
2023-05-10T02:02:47.376Z,63.83
2023-05-10T02:03:06.326Z,63.65
2023-05-10T02:03:22.819Z,63.64
2023-05-10T02:03:38.288Z,63.87
2023-05-10T02:03:52.869Z,63.66
2023-05-10T02:04:07.326Z,63.60
2023-05-10T02:04:23.008Z,63.67
2023-05-10T02:04:39.041Z,63.70
2023-05-10T02:04:52.469Z,64.12
2023-05-10T02:05:08.692Z,64.17
2023-05-10T02:05:22.927Z,64.39
2023-05-10T02:05:37.680Z,64.16
2023-05-10T02:05:51.956Z,64.25
2023-05-10T02:06:06.205Z,64.00
2023-05-10T02:06:22.126Z,63.86
2023-05-10T02:06:35.649Z,63.70
2023-05-10T02:06:49.620Z,63.51
2023-05-10T02:07:02.871Z,63.31
2023-05-10T02:07:16.405Z,63.40
2023-05-10T02:07:29.843Z,63.41
2023-05-10T02:07:44.186Z,63.46
2023-05-10T02:07:59.270Z,63.28
2023-05-10T02:08:13.411Z,63.20
2023-05-10T02:08:26.902Z,63.39
2023-05-10T02:08:41.254Z,63.31
2023-05-10T02:08:54.879Z,63.13
2023-05-10T02:09:08.388Z,63.15
2023-05-10T02:09:22.713Z,62.93
2023-05-10T02:09:36.881Z,63.10
2023-05-10T02:09:49.422Z,63.08
2023-05-10T02:10:03.834Z,63.19
2023-05-10T02:10:17.239Z,63.32
2023-05-10T02:10:30.337Z,63.24
2023-05-10T02:10:45.992Z,63.35
2023-05-10T02:11:00.719Z,63.41
2023-05-10T02:11:14.402Z,63.60
2023-05-10T02:11:29.730Z,63.20
2023-05-10T02:11:44.865Z,63.24
2023-05-10T02:11:59.637Z,63.26
2023-05-10T02:12:16.128Z,62.87
2023-05-10T02:12:31.137Z,63.07
2023-05-10T02:12:47.186Z,62.84
2023-05-10T02:13:01.606Z,62.44
2023-05-10T02:13:16.269Z,62.57
2023-05-10T02:13:30.878Z,62.94
2023-05-10T02:13:46.044Z,62.97
2023-05-10T02:13:59.860Z,62.99
2023-05-10T02:14:13.502Z,62.80
2023-05-10T02:14:28.007Z,62.84
2023-05-10T02:14:42.468Z,63.32
2023-05-10T02:14:56.112Z,63.21
2023-05-10T02:15:11.575Z,63.51
2023-05-10T02:15:26.891Z,63.67
2023-05-10T02:15:41.256Z,63.85
2023-05-10T02:15:55.916Z,63.72
2023-05-10T02:16:09.039Z,63.68
2023-05-10T02:16:26.377Z,63.80
2023-05-10T02:16:40.863Z,63.50
2023-05-10T02:16:56.854Z,63.72
2023-05-10T02:17:10.652Z,63.26
2023-05-10T02:17:25.768Z,63.37
2023-05-10T02:17:40.262Z,63.30
2023-05-10T02:17:55.559Z,62.98
2023-05-10T02:18:11.979Z,62.91
2023-05-10T02:18:27.835Z,63.00
2023-05-10T02:18:42.173Z,63.11
2023-05-10T02:18:57.115Z,63.00
2023-05-10T02:19:11.135Z,63.44
2023-05-10T02:19:25.003Z,63.11
2023-05-10T02:19:41.819Z,63.48
2023-05-10T02:19:56.321Z,63.79
2023-05-10T02:20:10.302Z,63.76
2023-05-10T02:20:25.663Z,63.91
2023-05-10T02:20:39.775Z,63.94
2023-05-10T02:20:54.924Z,63.95
2023-05-10T02:21:09.061Z,63.89
2023-05-10T02:21:22.742Z,63.82
2023-05-10T02:21:36.339Z,63.80
2023-05-10T02:21:50.269Z,63.79
2023-05-10T02:22:05.008Z,64.18
2023-05-10T02:22:18.681Z,63.78
2023-05-10T02:22:32.646Z,63.99
2023-05-10T02:22:47.968Z,63.91
2023-05-10T02:23:02.000Z,63.91
2023-05-10T02:23:16.523Z,64.18
2023-05-10T02:23:30.729Z,64.25
2023-05-10T02:23:44.329Z,64.33
2023-05-10T02:23:58.167Z,64.04
2023-05-10T02:24:12.600Z,64.54
2023-05-10T02:24:26.297Z,64.21
2023-05-10T02:24:40.832Z,64.20
2023-05-10T02:24:56.049Z,64.38
2023-05-10T02:25:11.380Z,64.34
2023-05-10T02:25:26.582Z,64.65
2023-05-10T02:25:40.489Z,64.51
2023-05-10T02:25:55.991Z,64.25
2023-05-10T02:26:09.853Z,64.25
2023-05-10T02:26:24.786Z,64.46
2023-05-10T02:26:40.284Z,64.74
2023-05-10T02:26:55.620Z,64.48
2023-05-10T02:27:09.679Z,64.65
2023-05-10T02:27:24.186Z,64.52
2023-05-10T02:27:38.317Z,64.47
2023-05-10T02:27:52.856Z,64.61
2023-05-10T02:28:07.421Z,64.39
2023-05-10T02:28:23.001Z,64.58
2023-05-10T02:28:38.618Z,64.32
2023-05-10T02:28:52.975Z,64.51
2023-05-10T02:29:07.635Z,64.43
2023-05-10T02:29:21.597Z,64.35
2023-05-10T02:29:34.889Z,64.78
2023-05-10T02:29:48.361Z,64.52
2023-05-10T02:30:03.805Z,64.54
2023-05-10T02:30:17.996Z,64.50
2023-05-10T02:30:33.452Z,64.41
2023-05-10T02:30:47.480Z,64.53
2023-05-10T02:31:00.764Z,64.54
2023-05-10T02:31:16.100Z,64.55
2023-05-10T02:31:29.347Z,64.65
2023-05-10T02:31:44.515Z,64.36
2023-05-10T02:31:58.861Z,64.42
2023-05-10T02:32:13.799Z,64.27
2023-05-10T02:32:28.543Z,64.13
2023-05-10T02:32:43.050Z,64.06
2023-05-10T02:32:57.256Z,64.57
2023-05-10T02:33:12.210Z,64.13
2023-05-10T02:33:25.454Z,64.15
2023-05-10T02:33:40.944Z,64.12
2023-05-10T02:33:55.249Z,63.96
2023-05-10T02:34:10.773Z,64.15
2023-05-10T02:34:26.569Z,64.02
2023-05-10T02:34:40.520Z,64.09
2023-05-10T02:34:53.679Z,64.50
2023-05-10T02:35:08.354Z,64.31
2023-05-10T02:35:22.135Z,64.40
2023-05-10T02:35:36.980Z,64.43
2023-05-10T02:35:51.410Z,64.23
2023-05-10T02:36:04.573Z,64.44
2023-05-10T02:36:18.013Z,64.08
2023-05-10T02:36:31.361Z,64.33
2023-05-10T02:36:44.548Z,64.34
2023-05-10T02:36:58.972Z,64.13
2023-05-10T02:37:12.064Z,64.22
2023-05-10T02:37:26.349Z,64.20
2023-05-10T02:37:40.935Z,64.36
2023-05-10T02:37:54.660Z,64.17
2023-05-10T02:38:08.530Z,64.31
2023-05-10T02:38:23.318Z,64.24
2023-05-10T02:38:37.475Z,64.28
2023-05-10T02:38:52.828Z,64.47
2023-05-10T02:39:10.429Z,64.45
2023-05-10T02:39:24.477Z,64.46
2023-05-10T02:39:37.684Z,64.40
2023-05-10T02:39:51.584Z,64.54
2023-05-10T02:40:06.553Z,64.70
2023-05-10T02:40:21.836Z,64.82
2023-05-10T02:40:35.293Z,64.50
2023-05-10T02:40:49.037Z,64.70
2023-05-10T02:41:03.176Z,64.32
2023-05-10T02:41:16.359Z,64.42
2023-05-10T02:41:33.037Z,64.27
2023-05-10T02:41:47.917Z,64.31
2023-05-10T02:42:01.733Z,64.05
2023-05-10T02:42:17.906Z,64.07
2023-05-10T02:42:33.868Z,64.01
2023-05-10T02:42:48.619Z,64.42
2023-05-10T02:43:03.650Z,64.44
2023-05-10T02:43:19.166Z,64.21
2023-05-10T02:43:33.389Z,64.57
2023-05-10T02:43:48.414Z,64.15
2023-05-10T02:44:03.800Z,64.50
2023-05-10T02:44:18.711Z,64.81
2023-05-10T02:44:32.848Z,64.82
2023-05-10T02:44:48.890Z,64.75
2023-05-10T02:45:04.229Z,64.42
2023-05-10T02:45:20.579Z,64.81
2023-05-10T02:45:35.457Z,64.58
2023-05-10T02:45:49.212Z,64.66
2023-05-10T02:46:02.257Z,64.18
2023-05-10T02:46:14.860Z,64.48
2023-05-10T02:46:28.710Z,64.64
2023-05-10T02:46:41.414Z,64.40
2023-05-10T02:46:56.855Z,64.49
2023-05-10T02:47:09.454Z,64.47
2023-05-10T02:47:22.122Z,64.51
2023-05-10T02:47:35.181Z,64.38
2023-05-10T02:47:48.009Z,64.45
2023-05-10T02:48:01.770Z,64.67
2023-05-10T02:48:16.389Z,64.46
2023-05-10T02:48:29.620Z,64.68
2023-05-10T02:48:42.533Z,64.88
2023-05-10T02:48:55.186Z,64.82
2023-05-10T02:49:07.863Z,64.74
2023-05-10T02:49:20.874Z,64.82
2023-05-10T02:49:33.456Z,64.66
2023-05-10T02:49:47.560Z,64.78
2023-05-10T02:50:00.537Z,64.83
2023-05-10T02:50:13.369Z,64.83
2023-05-10T02:50:28.591Z,65.15
2023-05-10T02:50:45.092Z,65.17
2023-05-10T02:51:02.113Z,65.30
2023-05-10T02:51:18.747Z,65.67
2023-05-10T02:51:34.668Z,65.68
2023-05-10T02:51:53.270Z,65.38
2023-05-10T02:52:08.110Z,65.52
2023-05-10T02:52:24.392Z,65.29
2023-05-10T02:52:43.500Z,65.49
2023-05-10T02:53:01.537Z,65.07
2023-05-10T02:53:20.557Z,65.03
2023-05-10T02:53:35.540Z,64.90
2023-05-10T02:53:50.587Z,64.74
2023-05-10T02:54:10.423Z,65.19
2023-05-10T02:54:28.546Z,65.17
2023-05-10T02:54:45.568Z,65.15
2023-05-10T02:55:05.031Z,65.37
2023-05-10T02:55:21.301Z,65.87
2023-05-10T02:55:37.824Z,65.56
2023-05-10T02:55:53.417Z,65.50
2023-05-10T02:56:13.195Z,65.44
2023-05-10T02:56:30.769Z,65.18
2023-05-10T02:56:48.813Z,65.35
2023-05-10T02:57:04.972Z,65.55
2023-05-10T02:57:20.233Z,65.42
2023-05-10T02:57:34.921Z,65.45
2023-05-10T02:57:53.231Z,65.64
2023-05-10T02:58:07.027Z,65.57
2023-05-10T02:58:20.352Z,65.41
2023-05-10T02:58:32.844Z,65.48
2023-05-10T02:58:45.384Z,65.19
2023-05-10T02:58:58.010Z,65.38
2023-05-10T02:59:10.570Z,65.26
2023-05-10T02:59:23.343Z,65.28
2023-05-10T02:59:35.973Z,65.11
2023-05-10T02:59:49.453Z,65.55
2023-05-10T03:00:02.264Z,65.47
2023-05-10T03:00:15.505Z,65.57
2023-05-10T03:00:28.417Z,65.00
2023-05-10T03:00:40.960Z,65.53
2023-05-10T03:00:53.901Z,65.39
2023-05-10T03:01:11.369Z,64.85
2023-05-10T03:01:24.065Z,64.80
2023-05-10T03:01:36.611Z,64.92
2023-05-10T03:01:49.343Z,64.97
2023-05-10T03:02:03.147Z,64.92
2023-05-10T03:02:15.753Z,64.75
2023-05-10T03:02:29.090Z,64.94
2023-05-10T03:02:42.692Z,64.55
2023-05-10T03:02:56.396Z,64.76
2023-05-10T03:03:09.419Z,64.51
2023-05-10T03:03:23.478Z,64.85
2023-05-10T03:03:35.998Z,64.79
2023-05-10T03:03:48.808Z,64.57
2023-05-10T03:04:01.287Z,64.52
2023-05-10T03:04:14.858Z,64.87
2023-05-10T03:04:27.456Z,65.16
2023-05-10T03:04:40.013Z,64.92
2023-05-10T03:04:52.622Z,65.10
2023-05-10T03:05:05.710Z,64.86
2023-05-10T03:05:18.385Z,64.77
2023-05-10T03:05:30.889Z,64.47
2023-05-10T03:05:43.429Z,64.69
2023-05-10T03:05:57.602Z,64.65
2023-05-10T03:06:10.599Z,64.54
2023-05-10T03:06:23.277Z,64.08
2023-05-10T03:06:35.887Z,64.26
2023-05-10T03:06:48.963Z,64.60
2023-05-10T03:07:01.730Z,64.36
2023-05-10T03:07:14.482Z,64.53
2023-05-10T03:07:27.477Z,64.86
2023-05-10T03:07:41.022Z,64.64
2023-05-10T03:07:54.222Z,64.62
2023-05-10T03:08:07.229Z,64.54
2023-05-10T03:08:19.779Z,64.46
2023-05-10T03:08:32.327Z,64.36
2023-05-10T03:08:46.257Z,64.33
2023-05-10T03:08:59.796Z,64.29
2023-05-10T03:09:16.050Z,64.44
2023-05-10T03:09:29.054Z,64.54
2023-05-10T03:09:42.224Z,64.38
2023-05-10T03:09:54.750Z,64.44
2023-05-10T03:10:08.419Z,64.60
2023-05-10T03:10:27.896Z,64.73
2023-05-10T03:10:50.285Z,64.64
2023-05-10T03:11:23.296Z,64.48
2023-05-10T03:11:48.376Z,64.16
2023-05-10T03:12:08.710Z,64.29
2023-05-10T03:12:29.533Z,64.23